Share

Aulander, NC

7:21 AM EDT on April 24, 2014 (GMT -0400)
Nowell Farm Road (KNCCOLER2) Elev 75 ft | 36.19 °N, 76.82 °W | Change Station

Current weather conditions updated 8 seconds ago

Clear
Clear
49.6 °F
Feels Like 49 °F
N
3.4
Wind Variable Wind from North
Gusts 4.9 mph
Sunrise 6:23 AM
Sunset 7:49 PM
Moon Waning Crescent

Today is forecast to be Cooler than yesterday.

Pressure 30.11 in
Visibility 10.0 miles
Clouds Clear
Windchill 49 °F
Dew Point 34 °F
Humidity 54%
Rainfall 0.00 in
Snow Depth Not available.
UV 0 out of 16
Pollen 9.60 out of 12
Air Quality Not available.
Flu Activity Local Activity
METAR KASJ 241055Z AUTO 00000KT 10SM CLR 03/01 A3011 RMK AO2 T00300012

More Conditions Fewer Conditions

Pressure 30.11 in
Visibility 10.0 miles
Clouds Clear
Windchill 49 °F
Dew Point 34 °F
Humidity 54%
Rainfall 0.00 in
Snow Depth Not available.
UV 0 out of 16
Pollen 9.60 out of 12
Air Quality Not available.
Flu Activity Local Activity
METAR KASJ 241055Z AUTO 00000KT 10SM CLR 03/01 A3011 RMK AO2 T00300012

More Conditions Fewer Conditions

10-Day Weather Forecast

Almanac

Astronomy

Apr. 24, 2014 Rise Set
Actual Time 6:23 AM EDT 7:49 PM EDT
Civil Twilight 5:56 AM EDT 8:16 PM EDT
Nautical Twilight 5:24 AM EDT 8:49 PM EDT
Astronomical Twilight 4:50 AM EDT 9:23 PM EDT
Moon 3:23 AM EDT 3:11 PM EDT
Length of Visible Light 14h 20m
Length of Day
13h 26m
Tomorrow will be 2m 3s longer.
Waning Crescent, 26% of the Moon is Illuminated
Today
Waning Crescent
Apr 29
New
May 6
First Quarter
May 14
Full
May 21
Last Quarter

Today's Extremes

State Highs State Lows

Community

  • Stacked
    Stacked
  • clouds approaching Red Sox Nation
    clouds approaching Red Sox Nation
  • Balance
    Balance
  • Nestled In
    Nestled In
  • Stunning Sunrise
    Stunning Sunrise

WunderPhotos

Upload Photos

1,704,584 photos uploaded!

WunderBlogs® & News

Nearby

Snow Depth

Station Depth Elevation
No new snow has been reported.

Coastal Water Temperatures

Place Temperature
Oregon Inlet Marina, NC 55.0 °F
Duck Pier, NC 51.1 °F
Hatteras, NC 61.0 °F
Money Point, VA 57.9 °F
Sewells Point, VA 57.0 °F
Chesapeake Bay Bridge Tunnel, VA 54.0 °F

Earthquake Activity

City Distance Mag. Time & Date
No recent earthquake activity has been reported nearby.
Minimum magnitude displayed is 2.5.

Nearby Weather Stations

Station Location Temp. Windchill Dew Point Humidity Wind Precip. Elev Updated Type
RAWS GREENS CROSS NC, Windsor, NC 35 °F 35 °F 35 °F 99% SW  at  1 mph 0.00 in / hr 41 ft 6:17 AM EDT MADIS
Nowell Farm Road, Colerain, NC 49.6 °F 49 °F 34 °F 54% North  at  3.4 mph 0.00 in / hr 75 ft 7:20 AM EDT Rapid Fire
Ashley's Grove, Conway, NC 44.0 °F 44 °F 37 °F 77% SSE  at  0.0 mph 0.00 in / hr 65 ft 7:20 AM EDT Rapid Fire

Show More Stations Show Fewer Stations

What do you think?

We're not finished. Please let us know what you like, what you don't like, and what you are still missing.